createdAt,value
2022-08-25T00:00:16.378Z,9.30
2022-08-25T00:04:13.204Z,11.30
2022-08-25T00:08:01.386Z,12.20
2022-08-25T00:11:41.945Z,11.20
2022-08-25T00:15:29.820Z,12.00
2022-08-25T00:19:15.962Z,11.70
2022-08-25T00:22:55.904Z,11.30
2022-08-25T00:26:37.071Z,12.00
2022-08-25T00:30:23.561Z,11.50
2022-08-25T00:34:04.012Z,11.30
2022-08-25T00:37:53.935Z,10.70
2022-08-25T00:41:41.431Z,11.70
2022-08-25T00:45:29.088Z,11.90
2022-08-25T00:49:22.474Z,12.30
2022-08-25T00:53:12.808Z,11.30
2022-08-25T00:57:00.433Z,10.40
2022-08-25T01:00:51.025Z,12.60
2022-08-25T01:04:31.253Z,12.30
2022-08-25T01:08:19.237Z,11.20
2022-08-25T01:12:00.833Z,13.60
2022-08-25T01:15:41.057Z,12.40
2022-08-25T01:19:28.750Z,12.10
2022-08-25T01:23:16.423Z,13.10
2022-08-25T01:27:03.031Z,13.40
2022-08-25T01:30:50.772Z,11.90
2022-08-25T01:34:38.148Z,12.80
2022-08-25T01:38:25.827Z,11.30
2022-08-25T01:42:12.023Z,11.80
2022-08-25T01:45:53.322Z,11.80
2022-08-25T01:49:43.368Z,6.60
2022-08-25T01:53:40.295Z,10.80
2022-08-25T01:57:27.800Z,9.40
2022-08-25T02:01:15.808Z,11.50
2022-08-25T02:05:03.451Z,6.40
2022-08-25T02:08:52.161Z,11.80
2022-08-25T02:12:39.695Z,10.10
2022-08-25T02:16:19.433Z,8.40
2022-08-25T02:20:06.938Z,10.80
2022-08-25T02:23:54.439Z,11.30
2022-08-25T02:27:40.568Z,10.30
2022-08-25T02:31:20.093Z,11.40
2022-08-25T02:35:06.154Z,12.10
2022-08-25T02:38:53.736Z,11.30
2022-08-25T02:42:42.774Z,9.50
2022-08-25T02:46:30.371Z,11.10
2022-08-25T02:50:18.049Z,11.00
2022-08-25T02:54:05.635Z,9.10
2022-08-25T02:57:52.238Z,10.80
2022-08-25T03:01:31.365Z,12.80
2022-08-25T03:05:19.420Z,12.00
2022-08-25T03:08:59.601Z,11.70
2022-08-25T03:12:47.245Z,10.40
2022-08-25T03:16:34.520Z,12.10
2022-08-25T03:20:12.647Z,14.80
2022-08-25T03:24:00.134Z,14.30
2022-08-25T03:27:47.981Z,15.20
2022-08-25T03:31:28.101Z,15.70
2022-08-25T03:35:15.687Z,15.20
2022-08-25T03:39:03.208Z,15.20
2022-08-25T03:42:50.940Z,16.50
2022-08-25T03:46:41.298Z,16.60
2022-08-25T03:50:28.948Z,15.50
2022-08-25T03:54:16.987Z,17.30
2022-08-25T03:58:04.816Z,16.60
2022-08-25T04:01:54.779Z,19.20
2022-08-25T04:05:39.313Z,17.10
2022-08-25T04:09:26.626Z,19.00
2022-08-25T04:13:06.613Z,16.50
2022-08-25T04:16:39.546Z,17.20
2022-08-25T04:20:20.013Z,15.30
2022-08-25T04:23:57.502Z,15.90
2022-08-25T04:27:44.886Z,12.90
2022-08-25T04:31:24.389Z,17.50
2022-08-25T04:34:47.400Z,16.70
2022-08-25T04:38:16.832Z,15.90
2022-08-25T04:42:04.492Z,21.90
2022-08-25T04:45:41.930Z,14.10
2022-08-25T04:48:43.594Z,16.00
2022-08-25T04:52:16.359Z,15.80
2022-08-25T04:55:45.793Z,15.80
2022-08-25T04:59:34.975Z,20.00
2022-08-25T05:03:22.668Z,17.00
2022-08-25T05:07:00.235Z,19.50
2022-08-25T05:10:47.555Z,13.20
2022-08-25T05:14:26.310Z,20.20
2022-08-25T05:18:14.461Z,20.10
2022-08-25T05:22:02.002Z,15.50
2022-08-25T05:25:49.534Z,15.40
2022-08-25T05:29:37.242Z,15.50
2022-08-25T05:33:24.680Z,15.10
2022-08-25T05:37:12.757Z,10.50
2022-08-25T05:40:53.171Z,17.40
2022-08-25T05:44:40.839Z,13.70
2022-08-25T05:48:28.480Z,14.30
2022-08-25T05:52:20.051Z,16.80
2022-08-25T05:56:06.986Z,10.90
2022-08-25T05:59:37.799Z,16.90
2022-08-25T06:03:21.025Z,14.40
2022-08-25T06:06:51.566Z,12.10
2022-08-25T06:10:31.761Z,15.00
2022-08-25T06:14:12.910Z,13.60
2022-08-25T06:17:41.507Z,14.50
2022-08-25T06:21:29.613Z,14.90
2022-08-25T06:25:17.410Z,14.00
2022-08-25T06:29:05.614Z,13.20
2022-08-25T06:32:53.778Z,9.80
2022-08-25T06:36:41.700Z,10.40
2022-08-25T06:40:29.516Z,14.50
2022-08-25T06:44:17.159Z,12.20
2022-08-25T06:48:05.031Z,13.90
2022-08-25T06:51:52.731Z,13.20
2022-08-25T06:55:40.268Z,12.70
2022-08-25T06:59:32.011Z,13.60
2022-08-25T07:03:27.493Z,12.70
2022-08-25T07:07:15.470Z,14.30
2022-08-25T07:11:03.449Z,11.70
2022-08-25T07:15:09.996Z,13.20
2022-08-25T07:19:00.245Z,9.90
2022-08-25T07:22:48.007Z,9.80
2022-08-25T07:26:38.501Z,7.60
2022-08-25T07:30:26.773Z,10.20
2022-08-25T07:34:05.714Z,8.40
2022-08-25T07:37:52.186Z,8.20
2022-08-25T07:41:34.012Z,9.20
2022-08-25T07:45:21.810Z,7.70
2022-08-25T07:49:09.139Z,6.80
2022-08-25T07:53:04.308Z,5.90
2022-08-25T07:56:52.309Z,9.70
2022-08-25T08:00:39.538Z,7.80
2022-08-25T08:04:29.921Z,8.30
2022-08-25T08:08:19.027Z,8.50
2022-08-25T08:12:09.670Z,6.50
2022-08-25T08:15:57.357Z,7.80
2022-08-25T08:19:45.496Z,3.90
2022-08-25T08:23:33.215Z,7.70
2022-08-25T08:27:20.732Z,8.50
2022-08-25T08:31:10.639Z,9.50
2022-08-25T08:34:57.038Z,5.80
2022-08-25T08:38:30.621Z,8.20
2022-08-25T08:42:42.718Z,7.70
2022-08-25T08:46:39.534Z,9.00
2022-08-25T08:50:50.647Z,8.40
2022-08-25T08:54:39.296Z,8.90
2022-08-25T08:58:29.072Z,7.20
2022-08-25T09:02:16.786Z,8.10
2022-08-25T09:06:24.657Z,7.70
2022-08-25T09:10:12.182Z,8.20
2022-08-25T09:14:08.735Z,6.80
2022-08-25T09:18:02.289Z,7.90
2022-08-25T09:21:47.155Z,9.00
2022-08-25T09:25:53.153Z,7.60
2022-08-25T09:29:42.037Z,8.20
2022-08-25T09:33:35.522Z,7.60
2022-08-25T09:37:23.904Z,9.40
2022-08-25T09:41:11.028Z,8.10
2022-08-25T09:45:05.367Z,7.00
2022-08-25T09:49:02.275Z,9.20
2022-08-25T09:53:17.257Z,8.50
2022-08-25T09:57:05.411Z,9.10
2022-08-25T10:01:02.766Z,7.90
2022-08-25T10:04:53.343Z,7.80
2022-08-25T10:08:37.090Z,7.70
2022-08-25T10:12:27.911Z,7.30
2022-08-25T10:16:20.479Z,7.70
2022-08-25T10:20:12.783Z,7.80
2022-08-25T10:23:51.950Z,8.60
2022-08-25T10:27:35.681Z,8.20
2022-08-25T10:31:34.966Z,6.70
2022-08-25T10:35:34.664Z,7.70
2022-08-25T10:39:33.849Z,7.50
2022-08-25T10:43:25.754Z,7.80
2022-08-25T10:47:16.932Z,8.40
2022-08-25T10:51:04.900Z,7.90
2022-08-25T10:55:11.471Z,8.70
2022-08-25T10:59:22.817Z,8.70
2022-08-25T11:03:08.233Z,7.70
2022-08-25T11:06:56.153Z,8.80
2022-08-25T11:10:45.357Z,8.60
2022-08-25T11:14:37.111Z,8.80
2022-08-25T11:18:33.702Z,9.10
2022-08-25T11:22:39.339Z,8.30
2022-08-25T11:26:14.453Z,9.80
2022-08-25T11:30:01.368Z,8.20
2022-08-25T11:33:53.125Z,9.30
2022-08-25T11:37:41.165Z,9.10
2022-08-25T11:41:49.074Z,15.40
2022-08-25T11:45:33.839Z,9.20
2022-08-25T11:49:21.924Z,9.40
2022-08-25T11:52:55.822Z,8.60
2022-08-25T11:56:49.219Z,8.40
2022-08-25T12:00:52.372Z,8.40
2022-08-25T12:04:55.177Z,8.90
2022-08-25T12:08:52.507Z,10.40
2022-08-25T12:12:40.580Z,7.70
2022-08-25T12:16:24.325Z,9.50
2022-08-25T12:20:30.783Z,10.10
2022-08-25T12:24:18.825Z,8.60
2022-08-25T12:28:09.516Z,11.10
2022-08-25T12:31:56.368Z,8.90
2022-08-25T12:36:05.402Z,9.90
2022-08-25T12:39:55.853Z,10.80
2022-08-25T12:43:46.880Z,10.10
2022-08-25T12:47:33.038Z,10.00
2022-08-25T12:51:20.519Z,9.90
2022-08-25T12:55:04.122Z,11.40
2022-08-25T12:59:02.235Z,10.10
2022-08-25T13:03:00.843Z,9.50
2022-08-25T13:06:54.324Z,9.20
2022-08-25T13:10:57.175Z,11.00
2022-08-25T13:14:57.416Z,9.40
2022-08-25T13:18:53.327Z,5.80
2022-08-25T13:22:38.361Z,9.90
2022-08-25T13:26:23.377Z,9.40
2022-08-25T13:30:16.149Z,9.50
2022-08-25T13:34:19.359Z,8.90
2022-08-25T13:38:06.990Z,9.60
2022-08-25T13:41:57.415Z,9.80
2022-08-25T13:45:41.432Z,8.00
2022-08-25T13:49:32.450Z,8.10
2022-08-25T13:53:30.404Z,8.40
2022-08-25T13:57:30.878Z,8.40
2022-08-25T14:01:47.770Z,7.20
2022-08-25T14:05:40.384Z,7.50
2022-08-25T14:09:35.514Z,8.20
2022-08-25T14:13:31.368Z,7.90
2022-08-25T14:17:36.334Z,7.30
2022-08-25T14:21:26.263Z,8.60
2022-08-25T14:24:46.693Z,6.90
2022-08-25T14:28:07.274Z,7.10
2022-08-25T14:31:55.023Z,7.70
2022-08-25T14:35:41.849Z,7.50
2022-08-25T14:39:11.149Z,9.60
2022-08-25T14:43:02.426Z,4.90
2022-08-25T14:46:29.303Z,7.70
2022-08-25T14:50:20.834Z,6.00
2022-08-25T14:54:09.054Z,8.30
2022-08-25T14:57:59.804Z,8.80
2022-08-25T15:01:50.102Z,7.30
2022-08-25T15:05:41.523Z,8.60
2022-08-25T15:09:33.291Z,7.80
2022-08-25T15:13:21.683Z,8.20
2022-08-25T15:17:05.061Z,8.00
2022-08-25T15:20:54.949Z,6.90
2022-08-25T15:24:43.094Z,6.60
2022-08-25T15:28:32.642Z,7.10
2022-08-25T15:32:21.068Z,8.00
2022-08-25T15:36:06.682Z,7.10
2022-08-25T15:39:54.998Z,7.40
2022-08-25T15:43:44.970Z,5.20
2022-08-25T15:47:25.874Z,7.60
2022-08-25T15:51:13.593Z,8.40
2022-08-25T15:54:01.753Z,7.90
2022-08-25T15:57:29.524Z,9.10
2022-08-25T16:01:16.395Z,7.60
2022-08-25T16:05:07.160Z,8.20
2022-08-25T16:08:55.420Z,6.90
2022-08-25T16:12:37.955Z,7.40
2022-08-25T16:16:28.284Z,6.20
2022-08-25T16:20:15.992Z,7.40
2022-08-25T16:24:07.436Z,8.20
2022-08-25T16:27:48.388Z,8.50
2022-08-25T16:31:33.703Z,8.70
2022-08-25T16:35:21.818Z,8.60
2022-08-25T16:39:09.867Z,8.40
2022-08-25T16:42:37.776Z,8.40
2022-08-25T16:46:13.914Z,8.20
2022-08-25T16:50:02.039Z,7.50
2022-08-25T16:53:48.995Z,7.80
2022-08-25T16:57:37.115Z,8.20
2022-08-25T17:01:25.235Z,7.70
2022-08-25T17:05:13.417Z,9.00
2022-08-25T17:08:53.477Z,8.40
2022-08-25T17:12:41.333Z,9.60
2022-08-25T17:16:29.035Z,9.00
2022-08-25T17:20:19.217Z,9.40
2022-08-25T17:24:07.176Z,9.60
2022-08-25T17:27:32.259Z,8.40
2022-08-25T17:31:20.003Z,9.20
2022-08-25T17:35:01.042Z,13.10
2022-08-25T17:38:25.551Z,9.60
2022-08-25T17:42:02.636Z,10.00
2022-08-25T17:45:50.420Z,10.90
2022-08-25T17:49:30.077Z,10.40
2022-08-25T17:53:17.742Z,11.60
2022-08-25T17:56:59.140Z,10.50
2022-08-25T18:00:47.286Z,9.70
2022-08-25T18:04:35.511Z,9.90
2022-08-25T18:08:32.315Z,9.70
2022-08-25T18:12:23.247Z,10.20
2022-08-25T18:15:45.435Z,10.60
2022-08-25T18:19:29.808Z,10.10
2022-08-25T18:23:17.410Z,10.90
2022-08-25T18:26:56.176Z,11.30
2022-08-25T18:30:26.258Z,11.70
2022-08-25T18:34:15.490Z,10.70
2022-08-25T18:37:55.000Z,10.50
2022-08-25T18:41:32.389Z,10.90
2022-08-25T18:45:20.611Z,11.00
2022-08-25T18:49:07.534Z,10.50
2022-08-25T18:52:12.791Z,10.80
2022-08-25T18:56:03.797Z,12.30
2022-08-25T18:59:42.753Z,11.70
2022-08-25T19:02:30.510Z,11.60
2022-08-25T19:06:05.323Z,11.60
2022-08-25T19:09:10.352Z,12.90
2022-08-25T19:12:36.912Z,11.80
2022-08-25T19:16:14.055Z,11.70
2022-08-25T19:20:11.237Z,12.50
2022-08-25T19:23:27.289Z,12.20
2022-08-25T19:27:15.728Z,12.30
2022-08-25T19:30:54.467Z,12.10
2022-08-25T19:34:33.825Z,11.60
2022-08-25T19:38:33.586Z,12.00
2022-08-25T19:42:36.792Z,12.20
2022-08-25T19:46:21.077Z,11.90
2022-08-25T19:50:07.622Z,11.20
2022-08-25T19:53:57.176Z,11.00
2022-08-25T19:57:42.827Z,11.70
2022-08-25T20:01:18.191Z,11.10
2022-08-25T20:04:56.183Z,12.60
2022-08-25T20:08:44.443Z,12.30
2022-08-25T20:12:32.449Z,12.70
2022-08-25T20:16:20.360Z,11.70
2022-08-25T20:20:08.471Z,11.10
2022-08-25T20:23:45.133Z,12.10
2022-08-25T20:27:33.041Z,11.70
2022-08-25T20:31:14.621Z,11.00
2022-08-25T20:34:58.356Z,9.80
2022-08-25T20:38:46.275Z,12.10
2022-08-25T20:42:26.282Z,11.10
2022-08-25T20:46:14.941Z,12.50
2022-08-25T20:50:07.006Z,11.30
2022-08-25T20:53:46.817Z,10.70
2022-08-25T20:57:33.900Z,10.80
2022-08-25T21:01:23.074Z,11.90
2022-08-25T21:05:11.112Z,12.40
2022-08-25T21:09:00.559Z,10.90
2022-08-25T21:12:48.479Z,11.20
2022-08-25T21:16:41.051Z,11.70
2022-08-25T21:20:30.118Z,12.90
2022-08-25T21:24:16.685Z,13.50
2022-08-25T21:27:56.864Z,13.90
2022-08-25T21:31:41.050Z,13.50
2022-08-25T21:35:34.598Z,12.40
2022-08-25T21:39:22.367Z,13.00
2022-08-25T21:43:02.523Z,12.20
2022-08-25T21:46:53.934Z,12.80
2022-08-25T21:50:47.501Z,11.70
2022-08-25T21:54:35.206Z,11.50
2022-08-25T21:58:22.807Z,11.10
2022-08-25T22:02:10.735Z,10.60
2022-08-25T22:05:49.105Z,10.90
2022-08-25T22:09:36.762Z,10.20
2022-08-25T22:13:25.180Z,11.00
2022-08-25T22:17:16.506Z,10.80
2022-08-25T22:20:57.804Z,10.20
2022-08-25T22:24:45.741Z,11.80
2022-08-25T22:28:24.294Z,9.70
2022-08-25T22:32:13.843Z,11.30
2022-08-25T22:36:01.713Z,10.40
2022-08-25T22:39:50.383Z,11.50
2022-08-25T22:43:30.824Z,11.60
2022-08-25T22:47:19.417Z,12.20
2022-08-25T22:51:07.260Z,11.70
2022-08-25T22:54:52.575Z,11.30
2022-08-25T22:58:39.561Z,11.20
2022-08-25T23:02:26.003Z,12.20
2022-08-25T23:06:22.221Z,10.30
2022-08-25T23:10:12.926Z,12.00
2022-08-25T23:14:00.071Z,12.90
2022-08-25T23:17:39.682Z,12.40
2022-08-25T23:21:26.079Z,12.00
2022-08-25T23:25:15.143Z,12.60
2022-08-25T23:29:07.799Z,10.50
2022-08-25T23:33:06.441Z,12.10
2022-08-25T23:37:03.680Z,11.20
2022-08-25T23:40:51.541Z,13.50
2022-08-25T23:44:25.701Z,12.10
2022-08-25T23:48:13.490Z,12.70
2022-08-25T23:52:08.003Z,12.50
2022-08-25T23:55:56.172Z,13.00
2022-08-25T23:59:44.528Z,12.40
